createdAt,value
2019-02-27T00:00:44.034Z,15.20
2019-02-27T00:01:42.992Z,13.50
2019-02-27T00:02:42.962Z,16.30
2019-02-27T00:03:42.942Z,13.10
2019-02-27T00:04:42.944Z,13.00
2019-02-27T00:05:42.940Z,13.30
2019-02-27T00:06:42.930Z,14.30
2019-02-27T00:07:42.886Z,14.80
2019-02-27T00:08:42.879Z,14.20
2019-02-27T00:09:42.868Z,16.00
2019-02-27T00:10:42.869Z,13.60
2019-02-27T00:11:45.941Z,15.60
2019-02-27T00:12:42.898Z,13.80
2019-02-27T00:13:42.881Z,15.40
2019-02-27T00:14:42.811Z,14.70
2019-02-27T00:15:42.818Z,14.80
2019-02-27T00:16:44.654Z,12.10
2019-02-27T00:17:42.783Z,17.50
2019-02-27T00:18:42.782Z,11.40
2019-02-27T00:19:42.779Z,11.60
2019-02-27T00:20:42.773Z,13.80
2019-02-27T00:21:43.675Z,13.10
2019-02-27T00:22:42.757Z,13.40
2019-02-27T00:23:42.746Z,13.10
2019-02-27T00:24:42.719Z,13.70
2019-02-27T00:25:42.728Z,13.00
2019-02-27T00:26:43.108Z,12.50
2019-02-27T00:27:42.674Z,12.80
2019-02-27T00:28:42.702Z,12.30
2019-02-27T00:29:42.651Z,12.30
2019-02-27T00:30:42.713Z,10.30
2019-02-27T00:31:45.271Z,12.80
2019-02-27T00:32:42.628Z,12.30
2019-02-27T00:33:42.697Z,13.00
2019-02-27T00:34:42.609Z,13.00
2019-02-27T00:35:42.660Z,13.40
2019-02-27T00:36:44.827Z,13.10
2019-02-27T00:37:42.616Z,11.20
2019-02-27T00:38:42.560Z,11.10
2019-02-27T00:39:42.568Z,14.40
2019-02-27T00:40:42.640Z,11.70
2019-02-27T00:41:43.115Z,11.80
2019-02-27T00:42:42.520Z,12.40
2019-02-27T00:43:42.524Z,12.10
2019-02-27T00:44:42.497Z,13.40
2019-02-27T00:45:42.503Z,12.10
2019-02-27T00:46:46.092Z,11.10
2019-02-27T00:47:42.459Z,12.30
2019-02-27T00:48:42.463Z,8.90
2019-02-27T00:49:42.456Z,10.80
2019-02-27T00:50:42.439Z,12.70
2019-02-27T00:51:44.738Z,10.40
2019-02-27T00:52:42.441Z,11.50
2019-02-27T00:53:42.391Z,10.90
2019-02-27T00:54:42.380Z,14.60
2019-02-27T00:55:42.435Z,13.90
2019-02-27T00:56:44.774Z,9.20
2019-02-27T00:57:42.355Z,12.90
2019-02-27T00:58:42.363Z,12.90
2019-02-27T00:59:42.330Z,13.10
2019-02-27T01:00:42.384Z,13.50
2019-02-27T01:01:42.304Z,11.90
2019-02-27T01:02:42.316Z,10.40
2019-02-27T01:03:42.289Z,10.50
2019-02-27T01:04:42.305Z,12.40
2019-02-27T01:05:42.261Z,10.10
2019-02-27T01:06:42.267Z,12.10
2019-02-27T01:07:42.240Z,11.00
2019-02-27T01:08:42.238Z,12.10
2019-02-27T01:09:42.238Z,12.60
2019-02-27T01:10:42.910Z,10.50
2019-02-27T01:11:42.204Z,9.60
2019-02-27T01:12:42.219Z,10.60
2019-02-27T01:13:42.213Z,12.10
2019-02-27T01:14:42.162Z,11.40
2019-02-27T01:15:44.669Z,11.20
2019-02-27T01:16:42.176Z,13.70
2019-02-27T01:17:42.137Z,12.20
2019-02-27T01:18:42.129Z,10.40
2019-02-27T01:19:43.057Z,10.30
2019-02-27T01:20:45.705Z,10.20
2019-02-27T01:21:42.129Z,10.90
2019-02-27T01:22:42.102Z,12.70
2019-02-27T01:23:44.678Z,10.20
2019-02-27T01:24:42.126Z,11.50
2019-02-27T01:25:42.055Z,11.70
2019-02-27T01:26:42.093Z,11.90
2019-02-27T01:27:42.031Z,11.10
2019-02-27T01:28:45.407Z,11.30
2019-02-27T01:29:42.021Z,12.30
2019-02-27T01:30:42.016Z,13.60
2019-02-27T01:31:42.010Z,10.70
2019-02-27T01:32:41.966Z,13.20
2019-02-27T01:33:41.964Z,9.50
2019-02-27T01:34:44.397Z,11.00
2019-02-27T01:35:41.965Z,12.50
2019-02-27T01:36:41.947Z,13.90
2019-02-27T01:37:41.916Z,10.80
2019-02-27T01:38:41.961Z,11.20
2019-02-27T01:39:44.023Z,13.10
2019-02-27T01:40:41.886Z,11.50
2019-02-27T01:41:41.886Z,15.50
2019-02-27T01:42:41.860Z,12.60
2019-02-27T01:43:41.850Z,12.40
2019-02-27T01:44:44.072Z,14.10
2019-02-27T01:45:41.839Z,11.60
2019-02-27T01:46:41.833Z,12.90
2019-02-27T01:47:41.807Z,10.70
2019-02-27T01:48:43.695Z,12.90
2019-02-27T01:49:41.782Z,13.50
2019-02-27T01:50:41.801Z,12.50
2019-02-27T01:51:41.769Z,13.50
2019-02-27T01:52:41.748Z,14.20
2019-02-27T01:53:41.947Z,12.20
2019-02-27T01:54:41.758Z,16.20
2019-02-27T01:55:41.749Z,13.30
2019-02-27T01:56:41.722Z,14.70
2019-02-27T01:57:41.695Z,13.70
2019-02-27T01:58:44.111Z,12.40
2019-02-27T01:59:41.692Z,13.50
2019-02-27T02:00:41.662Z,14.00
2019-02-27T02:01:41.669Z,14.00
2019-02-27T02:02:41.644Z,14.70
2019-02-27T02:03:41.725Z,11.80
2019-02-27T02:04:41.624Z,10.20
2019-02-27T02:05:41.620Z,13.70
2019-02-27T02:06:41.607Z,13.90
2019-02-27T02:07:41.623Z,12.80
2019-02-27T02:08:41.580Z,11.60
2019-02-27T02:09:41.567Z,14.40
2019-02-27T02:10:41.567Z,14.10
2019-02-27T02:11:41.573Z,17.20
2019-02-27T02:12:42.220Z,14.30
2019-02-27T02:13:41.522Z,13.00
2019-02-27T02:14:41.521Z,14.50
2019-02-27T02:15:41.521Z,13.60
2019-02-27T02:16:41.494Z,15.60
2019-02-27T02:17:41.659Z,16.80
2019-02-27T02:18:41.490Z,12.30
2019-02-27T02:19:41.482Z,13.40
2019-02-27T02:20:41.454Z,18.80
2019-02-27T02:21:41.466Z,13.40
2019-02-27T02:22:41.940Z,16.00
2019-02-27T02:23:41.427Z,12.90
2019-02-27T02:24:41.410Z,16.00
2019-02-27T02:25:41.412Z,12.70
2019-02-27T02:26:41.445Z,13.60
2019-02-27T02:27:42.116Z,14.80
2019-02-27T02:28:41.359Z,16.90
2019-02-27T02:29:41.397Z,13.70
2019-02-27T02:30:41.341Z,20.00
2019-02-27T02:31:42.531Z,14.50
2019-02-27T02:32:41.333Z,14.70
2019-02-27T02:33:41.325Z,13.70
2019-02-27T02:34:41.298Z,14.20
2019-02-27T02:35:41.296Z,15.40
2019-02-27T02:36:41.290Z,15.70
2019-02-27T02:37:41.293Z,18.20
2019-02-27T02:38:41.273Z,17.20
2019-02-27T02:39:41.237Z,16.70
2019-02-27T02:40:41.240Z,16.80
2019-02-27T02:41:46.341Z,13.60
2019-02-27T02:42:42.265Z,17.80
2019-02-27T02:43:42.008Z,14.50
2019-02-27T02:44:41.249Z,15.50
2019-02-27T02:45:41.180Z,15.80
2019-02-27T02:46:45.037Z,14.80
2019-02-27T02:47:41.152Z,15.90
2019-02-27T02:48:41.157Z,15.00
2019-02-27T02:49:42.657Z,16.60
2019-02-27T02:50:41.128Z,16.30
2019-02-27T02:51:41.157Z,16.40
2019-02-27T02:52:41.711Z,15.80
2019-02-27T02:53:41.190Z,17.40
2019-02-27T02:54:41.084Z,16.30
2019-02-27T02:55:41.072Z,16.30
2019-02-27T02:56:41.054Z,15.60
2019-02-27T02:57:41.052Z,19.40
2019-02-27T02:58:47.257Z,19.00
2019-02-27T02:59:42.031Z,18.20
2019-02-27T03:00:41.028Z,16.60
2019-02-27T03:01:41.015Z,16.30
2019-02-27T03:02:41.091Z,14.70
2019-02-27T03:03:40.987Z,16.70
2019-02-27T03:04:41.006Z,14.80
2019-02-27T03:05:40.993Z,15.40
2019-02-27T03:06:40.954Z,13.30
2019-02-27T03:07:44.463Z,13.90
2019-02-27T03:08:40.923Z,12.90
2019-02-27T03:09:40.939Z,13.00
2019-02-27T03:10:42.885Z,15.00
2019-02-27T03:11:40.935Z,13.60
2019-02-27T03:12:40.928Z,12.80
2019-02-27T03:13:41.855Z,12.60
2019-02-27T03:14:40.882Z,14.00
2019-02-27T03:15:40.863Z,13.90
2019-02-27T03:16:41.433Z,15.00
2019-02-27T03:17:40.845Z,14.80
2019-02-27T03:18:40.857Z,13.60
2019-02-27T03:19:41.830Z,17.50
2019-02-27T03:20:40.829Z,12.50
2019-02-27T03:21:40.782Z,14.90
2019-02-27T03:22:41.772Z,18.20
2019-02-27T03:23:40.806Z,12.50
2019-02-27T03:24:40.945Z,14.90
2019-02-27T03:25:41.892Z,14.50
2019-02-27T03:26:40.752Z,15.70
2019-02-27T03:27:40.719Z,14.90
2019-02-27T03:28:41.706Z,12.80
2019-02-27T03:29:40.737Z,11.80
2019-02-27T03:30:40.690Z,12.90
2019-02-27T03:31:40.698Z,13.10
2019-02-27T03:32:43.242Z,13.20
2019-02-27T03:33:40.693Z,13.30
2019-02-27T03:34:47.994Z,11.10
2019-02-27T03:35:41.645Z,13.80
2019-02-27T03:36:40.645Z,14.40
2019-02-27T03:37:40.606Z,14.10
2019-02-27T03:38:40.607Z,11.70
2019-02-27T03:39:40.595Z,13.20
2019-02-27T03:40:40.605Z,14.20
2019-02-27T03:41:40.573Z,17.90
2019-02-27T03:42:40.574Z,11.20
2019-02-27T03:43:45.655Z,11.90
2019-02-27T03:44:41.546Z,12.80
2019-02-27T03:45:40.575Z,16.90
2019-02-27T03:46:41.747Z,13.20
2019-02-27T03:47:40.506Z,12.90
2019-02-27T03:48:40.489Z,13.90
2019-02-27T03:49:40.974Z,15.70
2019-02-27T03:50:40.563Z,17.50
2019-02-27T03:51:40.454Z,14.40
2019-02-27T03:52:40.446Z,14.40
2019-02-27T03:53:43.150Z,14.90
2019-02-27T03:54:41.450Z,13.20
2019-02-27T03:55:40.412Z,16.60
2019-02-27T03:56:43.482Z,11.70
2019-02-27T03:57:40.389Z,12.90
2019-02-27T03:58:40.408Z,14.80
2019-02-27T03:59:42.478Z,13.60
2019-02-27T04:00:42.099Z,16.90
2019-02-27T04:01:40.389Z,12.40
2019-02-27T04:02:42.073Z,13.50
2019-02-27T04:03:40.471Z,14.80
2019-02-27T04:04:40.317Z,13.70
2019-02-27T04:05:42.152Z,14.70
2019-02-27T04:06:40.320Z,14.00
2019-02-27T04:07:40.349Z,13.50
2019-02-27T04:08:43.863Z,14.10
2019-02-27T04:09:40.284Z,14.60
2019-02-27T04:10:40.275Z,13.60
2019-02-27T04:11:42.586Z,15.30
2019-02-27T04:12:40.231Z,13.40
2019-02-27T04:13:40.379Z,13.00
2019-02-27T04:14:41.794Z,13.90
2019-02-27T04:15:40.211Z,12.70
2019-02-27T04:16:40.209Z,17.50
2019-02-27T04:17:40.188Z,13.00
2019-02-27T04:18:40.193Z,15.50
2019-02-27T04:19:40.539Z,12.70
2019-02-27T04:20:40.140Z,14.90
2019-02-27T04:21:40.144Z,12.10
2019-02-27T04:22:40.123Z,15.20
2019-02-27T04:23:40.134Z,15.00
2019-02-27T04:24:40.165Z,14.20
2019-02-27T04:25:40.126Z,13.60
2019-02-27T04:26:41.921Z,11.80
2019-02-27T04:27:40.063Z,13.20
2019-02-27T04:28:40.060Z,11.90
2019-02-27T04:29:41.094Z,13.00
2019-02-27T04:30:40.026Z,16.60
2019-02-27T04:31:40.070Z,11.90
2019-02-27T04:32:40.034Z,14.40
2019-02-27T04:33:40.049Z,12.50
2019-02-27T04:34:39.995Z,14.50
2019-02-27T04:35:40.222Z,13.20
2019-02-27T04:36:39.968Z,16.10
2019-02-27T04:37:40.000Z,12.80
2019-02-27T04:38:39.947Z,12.80
2019-02-27T04:39:39.929Z,13.50
2019-02-27T04:40:41.711Z,14.70
2019-02-27T04:41:39.908Z,15.30
2019-02-27T04:42:39.907Z,13.20
2019-02-27T04:43:39.884Z,14.30
2019-02-27T04:44:39.878Z,11.30
2019-02-27T04:45:39.917Z,13.30
2019-02-27T04:46:39.895Z,14.90
2019-02-27T04:47:39.841Z,13.00
2019-02-27T04:48:39.845Z,17.10
2019-02-27T04:49:39.814Z,12.90
2019-02-27T04:50:41.718Z,12.30
2019-02-27T04:51:39.825Z,11.70
2019-02-27T04:52:39.783Z,14.30
2019-02-27T04:53:40.754Z,12.40
2019-02-27T04:54:41.665Z,12.80
2019-02-27T04:55:39.762Z,12.90
2019-02-27T04:56:39.754Z,15.20
2019-02-27T04:57:39.752Z,13.60
2019-02-27T04:58:43.029Z,15.60
2019-02-27T04:59:39.732Z,13.20
2019-02-27T05:00:39.729Z,16.30
2019-02-27T05:01:39.734Z,15.10
2019-02-27T05:02:39.684Z,16.20
2019-02-27T05:03:39.683Z,15.90
2019-02-27T05:04:39.675Z,15.90
2019-02-27T05:05:41.425Z,16.80
2019-02-27T05:06:39.656Z,17.90
2019-02-27T05:07:39.672Z,14.80
2019-02-27T05:08:39.610Z,16.50
2019-02-27T05:09:39.599Z,21.90
2019-02-27T05:10:40.519Z,15.90
2019-02-27T05:11:39.593Z,17.80
2019-02-27T05:12:39.571Z,13.90
2019-02-27T05:13:39.618Z,13.00
2019-02-27T05:14:39.606Z,13.70
2019-02-27T05:15:39.720Z,14.10
2019-02-27T05:16:39.558Z,16.30
2019-02-27T05:17:39.516Z,20.10
2019-02-27T05:18:39.506Z,14.70
2019-02-27T05:19:39.520Z,22.10
2019-02-27T05:20:39.500Z,13.80
2019-02-27T05:21:39.503Z,14.70
2019-02-27T05:22:39.490Z,16.20
2019-02-27T05:23:39.462Z,17.50
2019-02-27T05:24:41.026Z,14.50
2019-02-27T05:25:39.424Z,17.20
2019-02-27T05:26:39.408Z,18.00
2019-02-27T05:27:39.413Z,20.30
2019-02-27T05:28:39.401Z,13.80
2019-02-27T05:29:39.446Z,19.10
2019-02-27T05:30:39.388Z,21.20
2019-02-27T05:31:39.374Z,14.90
2019-02-27T05:32:39.404Z,16.80
2019-02-27T05:33:39.908Z,17.50
2019-02-27T05:34:39.343Z,17.90
2019-02-27T05:35:39.315Z,16.20
2019-02-27T05:36:39.312Z,16.20
2019-02-27T05:37:39.451Z,15.70
2019-02-27T05:38:41.070Z,12.70
2019-02-27T05:39:39.271Z,17.80
2019-02-27T05:40:39.262Z,15.40
2019-02-27T05:41:39.249Z,16.20
2019-02-27T05:42:39.682Z,17.80
2019-02-27T05:43:39.228Z,19.70
2019-02-27T05:44:39.272Z,18.10
2019-02-27T05:45:39.256Z,13.20
2019-02-27T05:46:39.301Z,17.70
2019-02-27T05:47:39.185Z,20.20
2019-02-27T05:48:39.168Z,19.50
2019-02-27T05:49:39.156Z,16.30
2019-02-27T05:50:39.146Z,18.80
2019-02-27T05:51:39.175Z,17.70
2019-02-27T05:52:39.136Z,16.70
2019-02-27T05:53:39.120Z,19.50
2019-02-27T05:54:39.102Z,16.50
2019-02-27T05:55:39.731Z,19.50
2019-02-27T05:56:39.085Z,20.30
2019-02-27T05:57:39.097Z,16.80
2019-02-27T05:58:39.066Z,21.20
2019-02-27T05:59:39.062Z,18.70
2019-02-27T06:00:39.036Z,19.80
2019-02-27T06:01:39.037Z,23.40
2019-02-27T06:02:39.071Z,21.60
2019-02-27T06:03:39.058Z,20.10
2019-02-27T06:04:39.005Z,17.90
2019-02-27T06:05:38.998Z,18.30
2019-02-27T06:06:38.970Z,18.60
2019-02-27T06:07:38.967Z,21.70
2019-02-27T06:08:38.992Z,20.90
2019-02-27T06:09:41.405Z,20.60
2019-02-27T06:10:38.932Z,18.40
2019-02-27T06:11:38.936Z,20.60
2019-02-27T06:12:40.740Z,17.80
2019-02-27T06:13:38.893Z,26.80
2019-02-27T06:14:38.908Z,18.70
2019-02-27T06:15:38.884Z,20.10
2019-02-27T06:16:40.702Z,19.90
2019-02-27T06:17:43.397Z,26.50
2019-02-27T06:18:38.861Z,21.20
2019-02-27T06:19:38.867Z,22.50
2019-02-27T06:20:38.961Z,23.10
2019-02-27T06:21:38.961Z,22.10
2019-02-27T06:22:38.833Z,24.00
2019-02-27T06:23:38.802Z,22.70
2019-02-27T06:24:38.822Z,22.40
2019-02-27T06:25:38.784Z,19.30
2019-02-27T06:26:38.777Z,21.60
2019-02-27T06:27:39.458Z,26.90
2019-02-27T06:28:38.741Z,21.20
2019-02-27T06:29:38.730Z,22.30
2019-02-27T06:30:38.722Z,22.40
2019-02-27T06:31:39.531Z,24.00
2019-02-27T06:32:38.704Z,20.50
2019-02-27T06:33:38.699Z,24.30
2019-02-27T06:34:38.664Z,23.20
2019-02-27T06:35:38.704Z,23.60
2019-02-27T06:36:42.022Z,17.00
2019-02-27T06:37:38.661Z,19.70
2019-02-27T06:38:38.687Z,20.30
2019-02-27T06:39:38.662Z,33.50
2019-02-27T06:40:42.048Z,23.80
2019-02-27T06:41:39.902Z,21.10
2019-02-27T06:42:38.601Z,22.60
2019-02-27T06:43:38.640Z,16.00
2019-02-27T06:44:39.314Z,20.00
2019-02-27T06:45:38.553Z,22.70
2019-02-27T06:46:38.539Z,21.40
2019-02-27T06:47:38.527Z,21.40
2019-02-27T06:48:42.982Z,22.40
2019-02-27T06:49:38.512Z,19.00
2019-02-27T06:50:38.504Z,20.20
2019-02-27T06:51:38.571Z,22.70
2019-02-27T06:52:40.150Z,26.60
2019-02-27T06:53:38.520Z,27.40
2019-02-27T06:54:38.459Z,18.30
2019-02-27T06:55:38.468Z,21.90
2019-02-27T06:56:38.424Z,25.70
2019-02-27T06:57:40.878Z,22.60
2019-02-27T06:58:38.426Z,29.70
2019-02-27T06:59:38.412Z,24.10
2019-02-27T07:00:38.397Z,18.40
2019-02-27T07:01:38.367Z,25.60
2019-02-27T07:02:38.362Z,24.80
2019-02-27T07:03:38.347Z,19.10
2019-02-27T07:04:39.513Z,22.10
2019-02-27T07:05:38.343Z,33.90
2019-02-27T07:06:38.323Z,23.60
2019-02-27T07:07:38.353Z,32.30
2019-02-27T07:08:38.736Z,23.50
2019-02-27T07:09:38.341Z,26.90
2019-02-27T07:10:38.285Z,17.40
2019-02-27T07:11:38.262Z,23.90
2019-02-27T07:12:38.259Z,27.50
2019-02-27T07:13:38.286Z,17.10
2019-02-27T07:14:39.197Z,28.60
2019-02-27T07:15:38.225Z,24.30
2019-02-27T07:16:38.227Z,26.90
2019-02-27T07:17:38.247Z,25.80
2019-02-27T07:18:41.498Z,27.00
2019-02-27T07:19:38.173Z,20.10
2019-02-27T07:20:38.162Z,26.10
2019-02-27T07:21:38.153Z,26.80
2019-02-27T07:22:38.150Z,26.90
2019-02-27T07:23:38.166Z,24.50
2019-02-27T07:24:38.180Z,20.60
2019-02-27T07:25:41.963Z,21.60
2019-02-27T07:26:38.099Z,24.90
2019-02-27T07:27:38.101Z,20.00
2019-02-27T07:28:38.110Z,23.90
2019-02-27T07:29:38.070Z,25.50
2019-02-27T07:30:39.775Z,19.10
2019-02-27T07:31:38.081Z,21.80
2019-02-27T07:32:38.044Z,29.20
2019-02-27T07:33:40.655Z,28.30
2019-02-27T07:34:38.009Z,20.30
2019-02-27T07:35:38.008Z,27.40
2019-02-27T07:36:38.556Z,27.30
2019-02-27T07:37:37.977Z,23.70
2019-02-27T07:38:37.985Z,20.10
2019-02-27T07:39:37.970Z,21.40
2019-02-27T07:40:37.960Z,25.30
2019-02-27T07:41:37.951Z,18.30
2019-02-27T07:42:37.945Z,17.60
2019-02-27T07:43:37.950Z,24.90
2019-02-27T07:44:37.911Z,24.90
2019-02-27T07:45:37.891Z,19.10
2019-02-27T07:46:37.910Z,22.40
2019-02-27T07:47:37.870Z,18.80
2019-02-27T07:48:37.864Z,20.20
2019-02-27T07:49:37.861Z,17.40
2019-02-27T07:50:37.841Z,22.50
2019-02-27T07:51:37.834Z,16.40
2019-02-27T07:52:37.815Z,20.00
2019-02-27T07:53:37.804Z,16.80
2019-02-27T07:54:37.795Z,20.30
2019-02-27T07:55:37.859Z,21.30
2019-02-27T07:56:37.775Z,19.50
2019-02-27T07:57:37.773Z,19.50
2019-02-27T07:58:37.752Z,25.50
2019-02-27T07:59:38.149Z,16.20
2019-02-27T08:00:37.736Z,25.20
2019-02-27T08:01:43.639Z,25.50
2019-02-27T08:02:38.713Z,16.40
2019-02-27T08:03:37.704Z,18.80
2019-02-27T08:04:37.699Z,20.20
2019-02-27T08:05:37.673Z,21.70
2019-02-27T08:06:38.480Z,22.70
2019-02-27T08:07:37.693Z,22.40
2019-02-27T08:08:37.642Z,19.00
2019-02-27T08:09:37.634Z,16.60
2019-02-27T08:10:37.626Z,20.30
2019-02-27T08:11:37.613Z,17.30
2019-02-27T08:12:37.601Z,17.30
2019-02-27T08:13:37.596Z,21.50
2019-02-27T08:14:37.895Z,21.90
2019-02-27T08:15:37.570Z,19.90
2019-02-27T08:16:37.568Z,21.30
2019-02-27T08:17:38.722Z,20.50
2019-02-27T08:18:38.189Z,25.10
2019-02-27T08:19:37.538Z,22.00
2019-02-27T08:20:37.647Z,18.10
2019-02-27T08:21:37.507Z,22.10
2019-02-27T08:22:37.500Z,15.20
2019-02-27T08:23:37.507Z,24.10
2019-02-27T08:24:37.516Z,21.60
2019-02-27T08:25:37.460Z,17.30
2019-02-27T08:26:37.445Z,17.00
2019-02-27T08:27:37.437Z,18.90
2019-02-27T08:28:37.432Z,17.00
2019-02-27T08:29:37.424Z,19.00
2019-02-27T08:30:37.402Z,20.50
2019-02-27T08:31:37.406Z,19.00
2019-02-27T08:32:37.380Z,19.40
2019-02-27T08:33:37.370Z,19.50
2019-02-27T08:34:37.369Z,15.70
2019-02-27T08:35:37.351Z,20.00
2019-02-27T08:36:37.341Z,18.90
2019-02-27T08:37:37.327Z,23.50
2019-02-27T08:38:37.325Z,24.10
2019-02-27T08:39:37.400Z,19.50
2019-02-27T08:40:37.309Z,18.80
2019-02-27T08:41:37.293Z,17.40
2019-02-27T08:42:40.371Z,16.50
2019-02-27T08:43:37.264Z,18.50
2019-02-27T08:44:37.264Z,18.30
2019-02-27T08:45:37.248Z,20.00
2019-02-27T08:46:37.708Z,18.80
2019-02-27T08:47:37.223Z,19.60
2019-02-27T08:48:37.213Z,20.90
2019-02-27T08:49:37.210Z,17.90
2019-02-27T08:50:37.188Z,15.00
2019-02-27T08:51:39.783Z,19.50
2019-02-27T08:52:37.174Z,15.00
2019-02-27T08:53:37.195Z,14.70
2019-02-27T08:54:37.158Z,19.30
2019-02-27T08:55:39.225Z,17.60
2019-02-27T08:56:37.190Z,24.00
2019-02-27T08:57:37.119Z,21.30
2019-02-27T08:58:37.112Z,19.90
2019-02-27T08:59:39.991Z,20.20
2019-02-27T09:00:37.079Z,22.30
2019-02-27T09:01:37.883Z,20.00
2019-02-27T09:02:37.063Z,20.80
2019-02-27T09:03:37.053Z,20.10
2019-02-27T09:04:37.050Z,21.60
2019-02-27T09:05:37.039Z,18.00
2019-02-27T09:06:37.015Z,20.30
2019-02-27T09:07:37.090Z,20.70
2019-02-27T09:08:37.051Z,17.60
2019-02-27T09:09:37.012Z,21.00
2019-02-27T09:10:36.973Z,16.30
2019-02-27T09:11:37.221Z,18.70
2019-02-27T09:12:36.947Z,17.50
2019-02-27T09:13:36.945Z,18.10
2019-02-27T09:14:36.932Z,18.90
2019-02-27T09:15:36.962Z,17.00
2019-02-27T09:16:36.907Z,14.60
2019-02-27T09:17:36.894Z,16.90
2019-02-27T09:18:36.883Z,21.70
2019-02-27T09:19:36.873Z,17.90
2019-02-27T09:20:36.865Z,18.10
2019-02-27T09:21:36.854Z,19.50
2019-02-27T09:22:37.437Z,16.20
2019-02-27T09:23:36.834Z,19.10
2019-02-27T09:24:36.820Z,16.20
2019-02-27T09:25:36.819Z,19.60
2019-02-27T09:26:36.919Z,17.50
2019-02-27T09:27:36.795Z,15.10
2019-02-27T09:28:36.781Z,18.80
2019-02-27T09:29:36.770Z,20.90
2019-02-27T09:30:36.765Z,17.70
2019-02-27T09:31:37.678Z,19.20
2019-02-27T09:32:36.740Z,21.80
2019-02-27T09:33:39.064Z,25.00
2019-02-27T09:34:36.737Z,17.30
2019-02-27T09:35:38.707Z,21.70
2019-02-27T09:36:36.701Z,23.70
2019-02-27T09:37:36.690Z,16.80
2019-02-27T09:38:36.675Z,18.10
2019-02-27T09:39:36.670Z,21.30
2019-02-27T09:40:38.886Z,20.20
2019-02-27T09:41:36.644Z,17.30
2019-02-27T09:42:36.640Z,18.80
2019-02-27T09:43:36.633Z,17.20
2019-02-27T09:44:36.751Z,17.30
2019-02-27T09:45:36.603Z,22.30
2019-02-27T09:46:36.590Z,20.20
2019-02-27T09:47:36.581Z,18.30
2019-02-27T09:48:36.570Z,20.20
2019-02-27T09:49:37.993Z,16.50
2019-02-27T09:50:36.553Z,21.00
2019-02-27T09:51:36.560Z,20.90
2019-02-27T09:52:36.538Z,14.60
2019-02-27T09:53:36.773Z,18.50
2019-02-27T09:54:36.512Z,16.80
2019-02-27T09:55:36.502Z,15.20
2019-02-27T09:56:36.496Z,19.20
2019-02-27T09:57:36.779Z,18.80
2019-02-27T09:58:36.472Z,22.20
2019-02-27T09:59:36.462Z,16.40
2019-02-27T10:00:36.461Z,15.30
2019-02-27T10:01:36.452Z,17.90
2019-02-27T10:02:36.437Z,19.10
2019-02-27T10:03:36.420Z,14.90
2019-02-27T10:04:36.416Z,18.40
2019-02-27T10:05:37.424Z,16.80
2019-02-27T10:06:36.388Z,18.80
2019-02-27T10:07:36.385Z,18.70
2019-02-27T10:08:36.371Z,16.40
2019-02-27T10:09:36.364Z,20.70
2019-02-27T10:10:36.372Z,16.10
2019-02-27T10:11:36.340Z,17.00
2019-02-27T10:12:36.350Z,16.20
2019-02-27T10:13:37.972Z,18.10
2019-02-27T10:14:36.310Z,16.10
2019-02-27T10:15:36.307Z,17.00
2019-02-27T10:16:36.294Z,17.40
2019-02-27T10:17:36.290Z,21.00
2019-02-27T10:18:36.281Z,18.10
2019-02-27T10:19:36.289Z,15.70
2019-02-27T10:20:37.407Z,16.60
2019-02-27T10:21:36.256Z,17.50
2019-02-27T10:22:36.232Z,14.50
2019-02-27T10:23:36.244Z,14.90
2019-02-27T10:24:37.043Z,12.50
2019-02-27T10:25:36.222Z,14.40
2019-02-27T10:26:36.219Z,12.30
2019-02-27T10:27:36.205Z,15.50
2019-02-27T10:28:39.641Z,14.50
2019-02-27T10:29:36.176Z,17.90
2019-02-27T10:30:36.186Z,18.50
2019-02-27T10:31:36.176Z,16.70
2019-02-27T10:32:36.710Z,17.10
2019-02-27T10:33:36.165Z,15.50
2019-02-27T10:34:36.319Z,15.60
2019-02-27T10:35:36.126Z,16.00
2019-02-27T10:36:39.081Z,13.90
2019-02-27T10:37:36.210Z,15.40
2019-02-27T10:38:40.220Z,14.60
2019-02-27T10:39:37.039Z,19.30
2019-02-27T10:40:36.077Z,19.10
2019-02-27T10:41:36.081Z,13.80
2019-02-27T10:42:36.095Z,16.40
2019-02-27T10:43:36.040Z,17.90
2019-02-27T10:44:36.058Z,16.80
2019-02-27T10:45:36.017Z,18.30
2019-02-27T10:46:36.021Z,16.30
2019-02-27T10:47:36.542Z,17.40
2019-02-27T10:48:36.843Z,18.20
2019-02-27T10:49:36.018Z,14.20
2019-02-27T10:50:36.223Z,13.50
2019-02-27T10:51:35.978Z,19.40
2019-02-27T10:52:35.959Z,15.00
2019-02-27T10:53:35.961Z,12.30
2019-02-27T10:54:38.916Z,19.10
2019-02-27T10:55:35.924Z,14.80
2019-02-27T10:56:35.988Z,14.70
2019-02-27T10:57:38.401Z,15.50
2019-02-27T10:58:35.901Z,15.50
2019-02-27T10:59:35.888Z,17.30
2019-02-27T11:00:35.887Z,17.50
2019-02-27T11:01:36.363Z,18.70
2019-02-27T11:02:35.875Z,18.40
2019-02-27T11:03:35.868Z,12.70
2019-02-27T11:04:36.330Z,16.20
2019-02-27T11:05:35.830Z,17.60
2019-02-27T11:06:37.735Z,16.90
2019-02-27T11:07:35.816Z,20.40
2019-02-27T11:08:35.802Z,16.50
2019-02-27T11:09:38.319Z,16.10
2019-02-27T11:10:36.783Z,22.00
2019-02-27T11:11:35.771Z,24.40
2019-02-27T11:12:35.768Z,23.10
2019-02-27T11:13:35.753Z,16.90
2019-02-27T11:14:35.761Z,25.30
2019-02-27T11:15:35.725Z,16.70
2019-02-27T11:16:35.733Z,25.90
2019-02-27T11:17:35.723Z,26.30
2019-02-27T11:18:35.735Z,19.80
2019-02-27T11:19:35.706Z,17.10
2019-02-27T11:20:35.685Z,23.90
2019-02-27T11:21:35.749Z,21.70
2019-02-27T11:22:35.672Z,20.00
2019-02-27T11:23:35.652Z,22.50
2019-02-27T11:24:35.688Z,20.40
2019-02-27T11:25:35.635Z,21.20
2019-02-27T11:26:35.640Z,17.80
2019-02-27T11:27:36.399Z,22.80
2019-02-27T11:28:35.632Z,26.40
2019-02-27T11:29:35.694Z,25.20
2019-02-27T11:30:36.779Z,23.30
2019-02-27T11:31:35.610Z,16.90
2019-02-27T11:32:35.581Z,22.50
2019-02-27T11:33:35.566Z,21.80
2019-02-27T11:34:35.593Z,22.80
2019-02-27T11:35:35.548Z,19.10
2019-02-27T11:36:38.893Z,21.80
2019-02-27T11:37:35.536Z,24.20
2019-02-27T11:38:35.517Z,21.50
2019-02-27T11:39:35.523Z,23.80
2019-02-27T11:40:35.515Z,21.70
2019-02-27T11:41:35.490Z,25.50
2019-02-27T11:42:35.486Z,27.30
2019-02-27T11:43:37.941Z,21.80
2019-02-27T11:44:36.480Z,22.40
2019-02-27T11:45:35.481Z,20.20
2019-02-27T11:46:38.246Z,22.30
2019-02-27T11:47:35.445Z,25.10
2019-02-27T11:48:35.422Z,23.20
2019-02-27T11:49:36.267Z,22.10
2019-02-27T11:50:35.419Z,29.00
2019-02-27T11:51:35.402Z,23.90
2019-02-27T11:52:35.399Z,20.20
2019-02-27T11:53:35.938Z,21.70
2019-02-27T11:54:35.371Z,25.30
2019-02-27T11:55:35.371Z,20.80
2019-02-27T11:56:35.355Z,22.00
2019-02-27T11:57:35.375Z,28.50
2019-02-27T11:58:38.498Z,23.80
2019-02-27T11:59:35.346Z,29.70
2019-02-27T12:00:35.320Z,22.80
2019-02-27T12:01:35.311Z,19.10
2019-02-27T12:02:37.792Z,18.70
2019-02-27T12:03:35.332Z,21.40
2019-02-27T12:04:35.293Z,28.60
2019-02-27T12:05:35.279Z,22.80
2019-02-27T12:06:35.306Z,28.20
2019-02-27T12:07:35.334Z,24.30
2019-02-27T12:08:35.256Z,22.40
2019-02-27T12:09:35.883Z,20.70
2019-02-27T12:10:35.237Z,21.30
2019-02-27T12:11:35.276Z,21.10
2019-02-27T12:12:35.269Z,22.30
2019-02-27T12:13:35.564Z,21.60
2019-02-27T12:14:35.217Z,20.50
2019-02-27T12:15:35.205Z,20.80
2019-02-27T12:16:35.200Z,26.50
2019-02-27T12:17:35.178Z,17.20
2019-02-27T12:18:35.235Z,18.80
2019-02-27T12:19:35.195Z,24.10
2019-02-27T12:20:35.178Z,15.90
2019-02-27T12:21:35.159Z,20.60
2019-02-27T12:22:35.343Z,17.50
2019-02-27T12:23:35.131Z,18.00
2019-02-27T12:24:35.130Z,16.30
2019-02-27T12:25:35.123Z,21.10
2019-02-27T12:26:37.503Z,22.00
2019-02-27T12:27:48.705Z,17.70
2019-02-27T12:28:36.095Z,21.80
2019-02-27T12:29:35.081Z,20.90
2019-02-27T12:30:37.468Z,21.90
2019-02-27T12:31:35.055Z,21.70
2019-02-27T12:32:35.038Z,20.90
2019-02-27T12:33:35.038Z,16.90
2019-02-27T12:34:37.119Z,22.30
2019-02-27T12:35:35.014Z,18.40
2019-02-27T12:36:35.010Z,24.70
2019-02-27T12:37:35.017Z,19.60
2019-02-27T12:38:35.003Z,20.00
2019-02-27T12:39:34.981Z,18.80
2019-02-27T12:40:34.958Z,22.70
2019-02-27T12:41:34.949Z,24.10
2019-02-27T12:42:37.308Z,18.80
2019-02-27T12:43:34.946Z,20.40
2019-02-27T12:44:34.943Z,18.70
2019-02-27T12:45:34.974Z,20.80
2019-02-27T12:46:34.904Z,20.40
2019-02-27T12:47:34.896Z,18.30
2019-02-27T12:48:34.945Z,21.70
2019-02-27T12:49:34.886Z,21.50
2019-02-27T12:50:34.857Z,20.70
2019-02-27T12:51:35.332Z,21.30
2019-02-27T12:52:34.840Z,20.60